Time;durP1;ratioP1;P1;durP2;ratioP2;P2;SDS_P1;SDS_P2;PMS_P1;PMS_P2;Temp;Humidity;BMP_temperature;BMP_pressure;BME280_temperature;BME280_humidity;BME280_pressure;Samples;Min_cycle;Max_cycle;Signal;HPM_P1;HPM_P2
2022/02/07 00:01:38;;;;;;;0.75;0.70;;;17.30;55.10;;;;;;5073477;28;20198;-62
2022/02/07 00:04:05;;;;;;;1.52;0.85;;;17.30;55.10;;;;;;5072576;28;20223;-63
2022/02/07 00:06:31;;;;;;;1.33;0.63;;;17.30;55.10;;;;;;5073602;28;20178;-63
2022/02/07 00:08:56;;;;;;;1.25;0.70;;;17.20;55.00;;;;;;5073155;28;20179;-64
2022/02/07 00:11:22;;;;;;;1.45;0.70;;;17.20;55.00;;;;;;5072692;28;20190;-67
2022/02/07 00:13:47;;;;;;;1.23;0.80;;;17.20;55.10;;;;;;5073451;28;20219;-66
2022/02/07 00:16:13;;;;;;;2.53;1.23;;;17.20;55.00;;;;;;5073017;28;20178;-67
2022/02/07 00:18:39;;;;;;;1.95;0.80;;;17.20;55.00;;;;;;5072648;28;20213;-65
2022/02/07 00:21:05;;;;;;;1.77;0.98;;;17.20;55.00;;;;;;5073115;28;20177;-65
2022/02/07 00:23:30;;;;;;;1.67;0.88;;;17.20;55.10;;;;;;5073264;28;20178;-65
2022/02/07 00:25:56;;;;;;;1.05;0.77;;;17.20;55.00;;;;;;5072189;28;20170;-65
2022/02/07 00:28:22;;;;;;;1.67;0.70;;;17.20;55.00;;;;;;5073120;28;20578;-64
2022/02/07 00:30:47;;;;;;;2.05;0.88;;;17.10;55.00;;;;;;5073040;28;20566;-63
2022/02/07 00:33:13;;;;;;;1.70;0.90;;;17.10;54.90;;;;;;5072259;28;20179;-63
2022/02/07 00:35:38;;;;;;;1.23;0.90;;;17.10;54.90;;;;;;5073092;28;20174;-62
2022/02/07 00:38:08;;;;;;;2.40;0.90;;;17.10;54.90;;;;;;5072539;28;20206;-64
2022/02/07 00:40:46;;;;;;;1.98;1.00;;;17.10;54.90;;;;;;5072232;28;20174;-63
2022/02/07 00:46:05;;;;;;;2.30;1.13;;;17.10;54.90;;;;;;5073190;28;20189;-64
2022/02/07 00:48:30;;;;;;;1.40;0.77;;;17.10;54.90;;;;;;5073031;28;20206;-64
2022/02/07 00:50:56;;;;;;;1.40;0.73;;;17.10;54.90;;;;;;5072651;28;20177;-66
2022/02/07 00:53:22;;;;;;;2.53;1.00;;;17.00;54.80;;;;;;5063290;28;20659;-68
2022/02/07 00:55:47;;;;;;;1.45;0.90;;;17.00;54.80;;;;;;5052749;28;20167;-66
2022/02/07 00:58:13;;;;;;;1.63;0.75;;;17.00;54.80;;;;;;5052510;28;20700;-64
2022/02/07 01:00:38;;;;;;;1.70;1.10;;;17.00;54.80;;;;;;5056553;28;20174;-63
2022/02/07 01:03:04;;;;;;;1.88;0.77;;;17.00;54.90;;;;;;5058891;28;20186;-62
2022/02/07 01:05:29;;;;;;;3.55;1.20;;;17.00;54.80;;;;;;5059417;28;20191;-62
2022/02/07 01:07:57;;;;;;;2.90;0.98;;;17.00;55.00;;;;;;5058328;28;20610;-64
2022/02/07 01:10:28;;;;;;;1.77;0.95;;;17.00;54.80;;;;;;5059135;28;20257;-65
2022/02/07 01:21:01;;;;;;;2.30;0.82;;;16.90;54.80;;;;;;5059167;28;20322;-65
2022/02/07 01:23:36;;;;;;;2.28;0.90;;;16.90;54.80;;;;;;5058343;28;20266;-64
2022/02/07 01:53:29;;;;;;;1.45;0.80;;;16.80;54.70;;;;;;5058536;28;20759;-66
2022/02/07 01:55:58;;;;;;;3.42;1.10;;;16.80;54.70;;;;;;5044435;28;20254;-66
2022/02/07 01:58:23;;;;;;;1.10;0.77;;;16.80;54.70;;;;;;5058050;28;20604;-63
2022/02/07 02:00:49;;;;;;;2.05;0.73;;;16.80;54.70;;;;;;5059118;28;20179;-63
2022/02/07 02:03:14;;;;;;;2.50;1.13;;;16.70;54.70;;;;;;5058481;28;20672;-62
2022/02/07 02:05:40;;;;;;;2.33;1.05;;;16.80;54.70;;;;;;5058241;28;20190;-62
2022/02/07 02:08:07;;;;;;;3.35;1.08;;;16.70;54.70;;;;;;5058472;28;20171;-64
2022/02/07 02:10:33;;;;;;;2.28;0.82;;;16.70;54.80;;;;;;5058108;28;20205;-65
2022/02/07 02:13:07;;;;;;;3.63;0.93;;;16.70;54.80;;;;;;5054396;28;20187;-66
2022/02/07 02:15:47;;;;;;;0.75;0.70;;;16.70;54.80;;;;;;5055581;28;20526;-65
2022/02/07 02:18:58;;;;;;;1.92;0.90;;;16.70;54.70;;;;;;5054486;28;20806;-66
2022/02/07 02:37:30;;;;;;;2.38;1.13;;;16.60;54.70;;;;;;5055221;28;20239;-63
2022/02/07 02:47:54;;;;;;;4.53;1.10;;;16.60;54.80;;;;;;5054471;28;20236;-64
2022/02/07 02:50:33;;;;;;;2.72;0.85;;;16.60;54.80;;;;;;5054807;28;20175;-64
2022/02/07 02:53:03;;;;;;;3.78;1.30;;;16.60;54.70;;;;;;5053927;28;20230;-66
2022/02/07 02:55:30;;;;;;;2.10;0.90;;;16.60;54.80;;;;;;5054903;28;20179;-65
2022/02/07 02:57:55;;;;;;;2.58;1.20;;;16.60;54.70;;;;;;5054466;28;20217;-65
2022/02/07 03:00:21;;;;;;;3.75;1.20;;;16.50;54.80;;;;;;5054077;28;20175;-63
2022/02/07 03:02:46;;;;;;;2.70;1.00;;;16.50;54.80;;;;;;5054578;28;20167;-62
2022/02/07 03:05:14;;;;;;;2.47;1.25;;;16.60;54.80;;;;;;5054301;28;20179;-63
2022/02/07 03:07:40;;;;;;;3.83;1.13;;;16.50;54.70;;;;;;5053972;28;20183;-63
2022/02/07 03:10:07;;;;;;;2.85;0.90;;;16.50;54.70;;;;;;5054299;28;20525;-65
2022/02/07 03:12:39;;;;;;;3.33;1.55;;;16.50;54.80;;;;;;5054627;28;20237;-66
2022/02/07 03:16:36;;;;;;;2.70;1.40;;;16.50;54.80;;;;;;5053508;28;20187;-65
2022/02/07 03:17:50;;;;;;;3.17;1.27;;;16.50;54.80;;;;;;5054261;28;20218;-65
2022/02/07 03:20:16;;;;;;;6.30;1.40;;;16.50;54.80;;;;;;5054047;28;20175;-65
2022/02/07 03:22:42;;;;;;;1.77;1.10;;;16.50;54.80;;;;;;5053051;28;20666;-64
2022/02/07 03:25:08;;;;;;;4.50;1.50;;;16.50;54.80;;;;;;5035741;28;20191;-64
2022/02/07 03:27:34;;;;;;;2.83;1.45;;;16.40;54.70;;;;;;5054263;28;20262;-64
2022/02/07 03:29:59;;;;;;;3.55;1.30;;;16.50;54.80;;;;;;5053123;28;20168;-64
2022/02/07 03:32:25;;;;;;;3.35;1.38;;;16.40;54.70;;;;;;5054062;28;20194;-63
2022/02/07 03:34:50;;;;;;;2.50;1.15;;;16.40;54.70;;;;;;5054096;28;20166;-63
2022/02/07 03:37:16;;;;;;;3.40;1.40;;;16.40;54.90;;;;;;5053428;28;20188;-63
2022/02/07 03:39:41;;;;;;;3.53;1.45;;;16.40;54.80;;;;;;5054099;28;20265;-64
2022/02/07 03:42:07;;;;;;;2.63;1.38;;;16.40;54.70;;;;;;5053058;28;20179;-66
2022/02/07 03:44:32;;;;;;;3.83;1.40;;;16.40;54.80;;;;;;5053809;28;20646;-64
2022/02/07 03:46:58;;;;;;;2.22;1.02;;;16.40;54.80;;;;;;5053523;28;20175;-64
2022/02/07 03:49:24;;;;;;;4.22;1.25;;;16.40;54.70;;;;;;5053247;28;20650;-64
2022/02/07 03:51:49;;;;;;;3.20;1.25;;;16.40;54.80;;;;;;5053807;28;20179;-65
2022/02/07 03:54:15;;;;;;;3.35;1.90;;;16.40;54.80;;;;;;5053261;28;20223;-65
2022/02/07 03:56:40;;;;;;;2.13;1.10;;;16.40;54.70;;;;;;5052798;28;20182;-65
2022/02/07 03:59:05;;;;;;;3.92;1.48;;;16.40;54.80;;;;;;5053113;28;20205;-65
2022/02/07 04:01:34;;;;;;;2.88;1.27;;;16.40;54.80;;;;;;5053792;28;20167;-63
2022/02/07 04:04:00;;;;;;;3.92;1.30;;;16.30;54.70;;;;;;5053004;28;20240;-64
2022/02/07 04:06:26;;;;;;;3.78;1.50;;;16.30;54.70;;;;;;5053580;28;20561;-62
2022/02/07 04:08:57;;;;;;;5.45;1.75;;;16.30;54.70;;;;;;5053405;28;20631;-63
2022/02/07 04:11:34;;;;;;;4.35;1.50;;;16.30;54.80;;;;;;5052735;28;20244;-65
2022/02/07 04:14:00;;;;;;;3.67;1.40;;;16.30;54.70;;;;;;5053291;28;20318;-67
2022/02/07 04:16:28;;;;;;;3.13;1.38;;;16.30;54.80;;;;;;5053562;28;20246;-65
2022/02/07 04:19:05;;;;;;;4.13;1.48;;;16.30;54.80;;;;;;5052242;28;20684;-66
2022/02/07 04:21:31;;;;;;;3.17;1.60;;;16.30;54.70;;;;;;5053206;28;20174;-64
2022/02/07 04:23:57;;;;;;;3.83;1.30;;;16.30;54.90;;;;;;5052789;28;20178;-64
2022/02/07 04:26:23;;;;;;;3.75;1.52;;;16.30;54.80;;;;;;5053083;28;20170;-64
2022/02/07 04:28:48;;;;;;;2.53;1.27;;;16.30;54.90;;;;;;5053362;28;20228;-63
2022/02/07 04:31:14;;;;;;;3.42;1.15;;;16.30;54.80;;;;;;5052179;28;20178;-64
2022/02/07 04:33:39;;;;;;;3.03;1.20;;;16.20;54.80;;;;;;5052980;28;20183;-63
2022/02/07 04:36:05;;;;;;;4.30;1.38;;;16.30;54.80;;;;;;5052357;28;20171;-64
2022/02/07 04:38:30;;;;;;;2.85;1.63;;;16.20;54.80;;;;;;5052274;28;21003;-63
2022/02/07 04:40:56;;;;;;;3.03;1.45;;;16.20;54.80;;;;;;5052645;28;20501;-63
2022/02/07 04:43:21;;;;;;;4.25;1.50;;;16.20;54.70;;;;;;5053064;28;20198;-63
2022/02/07 04:46:00;;;;;;;4.80;1.58;;;16.20;54.70;;;;;;5052191;28;20528;-63
2022/02/07 04:48:42;;;;;;;2.95;1.50;;;16.20;54.80;;;;;;5053113;28;20183;-64
2022/02/07 04:51:27;;;;;;;4.03;1.50;;;16.20;54.80;;;;;;5052757;28;20175;-65
2022/02/07 04:54:09;;;;;;;3.00;1.30;;;16.20;54.80;;;;;;5051973;28;20222;-66
2022/02/07 04:59:23;;;;;;;3.25;1.65;;;16.20;54.90;;;;;;5052069;28;20697;-63
2022/02/07 05:01:55;;;;;;;3.47;1.58;;;16.20;54.80;;;;;;5052954;28;20212;-63
2022/02/07 05:04:32;;;;;;;2.17;1.17;;;16.20;54.80;;;;;;5052941;28;20175;-62
2022/02/07 05:15:10;;;;;;;2.97;1.33;;;16.10;54.80;;;;;;5051671;28;20175;-66
2022/02/07 05:17:38;;;;;;;3.17;1.48;;;16.10;54.80;;;;;;5052703;28;20171;-65
2022/02/07 05:20:05;;;;;;;2.75;1.10;;;16.10;54.80;;;;;;5052218;28;20257;-66
2022/02/07 05:22:31;;;;;;;5.28;1.70;;;16.10;54.80;;;;;;5033736;28;20183;-65
2022/02/07 05:24:57;;;;;;;3.42;1.42;;;16.10;54.90;;;;;;5052531;28;20300;-64
2022/02/07 05:27:22;;;;;;;3.63;1.42;;;16.10;54.80;;;;;;5052485;28;20228;-64
2022/02/07 05:29:48;;;;;;;4.93;1.67;;;16.10;54.90;;;;;;5052198;28;20179;-63
2022/02/07 05:32:15;;;;;;;2.80;1.38;;;16.10;54.90;;;;;;5052271;28;20168;-64
2022/02/07 05:34:41;;;;;;;4.40;1.73;;;16.10;54.80;;;;;;5051669;28;20277;-62
2022/02/07 05:37:07;;;;;;;2.63;1.23;;;16.10;54.90;;;;;;5052034;28;20285;-62
2022/02/07 05:39:35;;;;;;;3.40;1.70;;;16.10;54.90;;;;;;5052490;28;20223;-64
2022/02/07 05:42:06;;;;;;;4.35;1.60;;;16.00;54.80;;;;;;5051417;28;20529;-65
2022/02/07 05:44:32;;;;;;;3.30;1.50;;;16.00;54.90;;;;;;5052552;28;20179;-63
2022/02/07 05:46:57;;;;;;;3.72;1.70;;;16.00;54.80;;;;;;5053420;28;20575;-64
2022/02/07 05:49:24;;;;;;;3.97;1.60;;;16.00;54.90;;;;;;5055407;28;20217;-64
2022/02/07 05:51:50;;;;;;;4.35;2.22;;;16.10;54.90;;;;;;5056256;28;20187;-65
2022/02/07 05:54:15;;;;;;;3.75;1.23;;;16.00;54.90;;;;;;5055501;28;20222;-66
2022/02/07 05:56:41;;;;;;;3.90;1.45;;;16.10;54.90;;;;;;5055193;28;20237;-64
2022/02/07 05:59:06;;;;;;;3.88;1.45;;;16.00;54.90;;;;;;5055547;28;20705;-63
2022/02/07 06:01:32;;;;;;;3.95;1.73;;;16.00;54.90;;;;;;5055893;28;20182;-62
2022/02/07 06:03:57;;;;;;;2.88;1.20;;;16.00;54.90;;;;;;5054888;28;20175;-62
2022/02/07 06:06:23;;;;;;;3.78;1.35;;;16.00;55.00;;;;;;5055971;28;20178;-62
2022/02/07 06:08:48;;;;;;;2.60;1.38;;;16.00;54.90;;;;;;5055705;28;20182;-63
2022/02/07 06:11:14;;;;;;;4.38;1.40;;;16.00;54.90;;;;;;5054595;28;20600;-66
2022/02/07 06:13:40;;;;;;;3.60;1.58;;;16.00;54.90;;;;;;5055845;28;20308;-65
2022/02/07 06:16:05;;;;;;;3.15;1.30;;;16.00;55.00;;;;;;5055517;28;20171;-66
2022/02/07 06:18:31;;;;;;;3.55;1.50;;;15.90;54.90;;;;;;5054663;28;20545;-65
2022/02/07 06:21:02;;;;;;;3.53;1.30;;;15.90;54.90;;;;;;5055286;28;20202;-65
2022/02/07 06:23:28;;;;;;;2.50;1.17;;;15.90;55.00;;;;;;5055613;28;20190;-64
2022/02/07 06:25:58;;;;;;;2.85;1.33;;;15.90;54.90;;;;;;5054375;28;20175;-65
2022/02/07 06:28:24;;;;;;;3.90;1.40;;;15.90;54.90;;;;;;5055437;28;20545;-63
2022/02/07 06:30:49;;;;;;;2.67;1.35;;;15.90;54.90;;;;;;5054593;28;20172;-63
2022/02/07 06:33:15;;;;;;;2.40;1.35;;;15.90;54.90;;;;;;5054985;28;20264;-63
2022/02/07 06:35:40;;;;;;;2.03;1.20;;;15.90;54.90;;;;;;5055441;28;20193;-63
2022/02/07 06:38:06;;;;;;;3.08;1.25;;;15.90;54.90;;;;;;5054138;28;20207;-64
2022/02/07 06:40:31;;;;;;;2.50;1.13;;;15.90;54.90;;;;;;5055091;28;20180;-63
2022/02/07 06:42:57;;;;;;;2.65;1.42;;;15.90;54.90;;;;;;5054670;28;20657;-63
2022/02/07 06:45:22;;;;;;;2.90;1.05;;;15.90;54.90;;;;;;5054313;28;20179;-63
2022/02/07 06:47:48;;;;;;;3.28;1.40;;;15.80;54.90;;;;;;5054888;28;20171;-63
2022/02/07 06:50:13;;;;;;;3.40;1.20;;;15.90;55.00;;;;;;5054769;28;20649;-65
2022/02/07 06:52:39;;;;;;;2.47;1.33;;;15.90;55.00;;;;;;5054162;28;20246;-64
2022/02/07 06:55:05;;;;;;;3.15;1.30;;;15.90;55.00;;;;;;5054726;28;20270;-65
2022/02/07 06:57:30;;;;;;;2.63;0.90;;;15.90;54.90;;;;;;5054371;28;20257;-64
2022/02/07 06:59:56;;;;;;;3.03;1.40;;;15.80;54.90;;;;;;5053830;28;20190;-63
2022/02/07 07:02:26;;;;;;;3.67;1.50;;;15.80;54.90;;;;;;5054669;28;20167;-62
2022/02/07 07:04:53;;;;;;;3.05;1.48;;;15.80;54.90;;;;;;5054922;28;20190;-62
2022/02/07 07:07:20;;;;;;;2.20;1.40;;;15.60;54.80;;;;;;5054087;28;20179;-62
2022/02/07 07:09:47;;;;;;;2.30;1.08;;;15.90;54.90;;;;;;5054729;28;20186;-63
2022/02/07 07:12:12;;;;;;;2.05;1.15;;;15.90;54.90;;;;;;5054270;28;20602;-66
2022/02/07 07:14:45;;;;;;;1.77;1.23;;;16.00;54.80;;;;;;5053831;28;20544;-62
2022/02/07 07:17:11;;;;;;;2.53;1.23;;;16.00;54.80;;;;;;5053923;28;20183;-73
2022/02/07 07:19:36;;;;;;;2.33;1.08;;;16.20;54.80;;;;;;5055326;28;20215;-72
2022/02/07 07:22:04;;;;;;;2.33;1.30;;;16.30;54.80;;;;;;5068631;28;20162;-72
2022/02/07 07:24:29;;;;;;;3.00;1.50;;;16.30;54.60;;;;;;5056335;28;20187;-71
2022/02/07 07:26:54;;;;;;;3.75;1.55;;;16.40;54.50;;;;;;5060918;28;20163;-72
2022/02/07 07:29:26;;;;;;;3.63;1.60;;;16.50;54.30;;;;;;5053584;28;20585;-73
2022/02/07 07:31:56;;;;;;;4.40;1.35;;;16.60;54.20;;;;;;5054368;28;20194;-73
2022/02/07 07:34:23;;;;;;;2.50;1.55;;;16.70;54.00;;;;;;5053616;28;20179;-75
2022/02/07 07:36:48;;;;;;;4.82;1.33;;;16.90;53.80;;;;;;5068155;28;20179;-73
2022/02/07 07:39:14;;;;;;;4.03;1.67;;;17.00;53.70;;;;;;5073638;28;20213;-73
2022/02/07 07:41:41;;;;;;;2.80;1.23;;;17.10;53.40;;;;;;5073249;28;20537;-72
2022/02/07 07:44:07;;;;;;;3.20;1.50;;;17.30;53.20;;;;;;5073776;28;20179;-73
2022/02/07 07:46:33;;;;;;;3.55;1.42;;;17.50;52.90;;;;;;5073972;28;20206;-73
2022/02/07 07:49:07;;;;;;;4.88;1.50;;;17.60;52.70;;;;;;5072896;28;20225;-65
2022/02/07 07:51:47;;;;;;;4.50;1.90;;;17.70;52.60;;;;;;5073573;28;20184;-68
2022/02/07 07:54:28;;;;;;;3.40;1.40;;;17.90;52.50;;;;;;5056323;28;20671;-67
2022/02/07 08:02:27;;;;;;;4.57;1.77;;;18.30;52.00;;;;;;5052719;28;20506;-69
2022/02/07 08:04:55;;;;;;;4.15;1.50;;;18.30;51.90;;;;;;5053030;28;20175;-70
2022/02/07 08:07:28;;;;;;;3.38;1.85;;;18.40;52.00;;;;;;5053557;28;20186;-70
2022/02/07 08:10:07;;;;;;;3.67;1.63;;;18.40;51.90;;;;;;5051759;28;20183;-69
2022/02/07 08:12:35;;;;;;;3.80;1.60;;;18.50;51.70;;;;;;5053153;28;20614;-69
2022/02/07 08:15:01;;;;;;;2.83;1.55;;;18.50;51.60;;;;;;5052928;28;20179;-69
2022/02/07 08:17:27;;;;;;;5.00;1.98;;;18.50;51.50;;;;;;5051948;28;20626;-69
2022/02/07 08:19:53;;;;;;;5.50;1.63;;;18.60;51.40;;;;;;5052996;28;20225;-70
2022/02/07 08:22:19;;;;;;;5.30;1.63;;;18.60;51.30;;;;;;5052942;28;20203;-69
2022/02/07 08:24:45;;;;;;;3.20;1.60;;;18.60;51.30;;;;;;5052608;28;20198;-69
2022/02/07 08:27:11;;;;;;;3.55;1.65;;;18.60;51.40;;;;;;5059770;28;20663;-70
2022/02/07 08:29:36;;;;;;;4.80;1.63;;;18.60;51.50;;;;;;5073245;28;20254;-70
2022/02/07 08:32:02;;;;;;;4.40;1.63;;;18.50;51.50;;;;;;5071887;28;20170;-71
2022/02/07 08:34:27;;;;;;;3.30;1.45;;;18.50;51.60;;;;;;5072976;28;20174;-72
2022/02/07 08:36:53;;;;;;;4.43;1.35;;;18.50;51.60;;;;;;5072863;28;20261;-70
2022/02/07 08:39:19;;;;;;;3.28;1.58;;;18.50;51.80;;;;;;5072142;28;20237;-71
2022/02/07 08:41:44;;;;;;;4.57;2.10;;;18.50;51.80;;;;;;5072930;28;20189;-70
2022/02/07 08:44:10;;;;;;;4.55;1.90;;;18.50;51.80;;;;;;5072689;28;20652;-74
2022/02/07 08:46:35;;;;;;;2.53;1.65;;;18.50;51.70;;;;;;5071972;28;20194;-72
2022/02/07 08:49:03;;;;;;;4.88;1.60;;;18.50;51.80;;;;;;5072529;28;20179;-68
2022/02/07 08:51:31;;;;;;;4.85;1.88;;;18.50;51.80;;;;;;5072086;28;20566;-68
2022/02/07 08:53:57;;;;;;;6.38;1.88;;;18.60;51.60;;;;;;5072226;28;20244;-65
2022/02/07 08:56:36;;;;;;;4.53;1.52;;;18.60;51.80;;;;;;5072807;28;20174;-68
2022/02/07 08:59:03;;;;;;;5.32;1.95;;;18.60;51.90;;;;;;5071379;28;20214;-68
2022/02/07 09:01:40;;;;;;;6.50;2.25;;;18.60;51.80;;;;;;5072752;28;20324;-69
2022/02/07 09:04:30;;;;;;;4.32;1.75;;;18.60;51.90;;;;;;5072424;28;20200;-69
2022/02/07 09:07:04;;;;;;;4.93;2.15;;;18.70;51.80;;;;;;5071593;28;20185;-68
2022/02/07 09:09:29;;;;;;;3.85;1.73;;;18.70;51.80;;;;;;5072475;28;20174;-68
2022/02/07 09:11:55;;;;;;;5.88;1.98;;;18.70;51.80;;;;;;5072033;28;20542;-68
2022/02/07 09:14:22;;;;;;;3.30;1.70;;;18.70;51.90;;;;;;5071886;28;20182;-68
2022/02/07 09:16:48;;;;;;;5.22;1.65;;;18.60;51.90;;;;;;5072544;28;20175;-69
2022/02/07 09:19:19;;;;;;;4.22;1.50;;;18.60;52.10;;;;;;5072137;28;20210;-68
2022/02/07 09:21:49;;;;;;;5.13;1.90;;;18.50;52.20;;;;;;5074375;28;20182;-67
2022/02/07 09:24:14;;;;;;;4.25;1.67;;;18.50;52.30;;;;;;5076247;28;20175;-67
2022/02/07 09:26:40;;;;;;;5.97;2.20;;;18.50;52.40;;;;;;5072450;28;20170;-68
2022/02/07 09:29:05;;;;;;;2.63;1.50;;;18.50;52.50;;;;;;5056065;28;20206;-68
2022/02/07 09:31:31;;;;;;;5.47;2.13;;;18.50;52.40;;;;;;5056114;28;20177;-69
2022/02/07 09:33:57;;;;;;;5.88;2.25;;;18.50;52.40;;;;;;5055128;28;20542;-69
2022/02/07 09:36:23;;;;;;;4.18;1.45;;;18.50;52.40;;;;;;5056055;28;20167;-70
2022/02/07 09:38:48;;;;;;;3.53;1.65;;;18.50;52.60;;;;;;5055948;28;20211;-69
2022/02/07 09:41:16;;;;;;;4.65;1.75;;;18.50;52.60;;;;;;5055196;28;20698;-69
2022/02/07 09:43:45;;;;;;;4.53;1.40;;;18.50;52.60;;;;;;5056053;28;20548;-69
2022/02/07 09:46:17;;;;;;;4.50;1.63;;;18.40;52.60;;;;;;5055535;28;20515;-68
2022/02/07 09:48:43;;;;;;;4.28;1.75;;;18.40;52.60;;;;;;5055379;28;20179;-69
2022/02/07 09:51:10;;;;;;;3.28;1.67;;;18.30;52.90;;;;;;5055746;28;20191;-69
2022/02/07 09:53:35;;;;;;;4.20;1.48;;;18.30;52.80;;;;;;5055730;28;20589;-69
2022/02/07 09:56:02;;;;;;;4.18;1.67;;;18.30;53.00;;;;;;5054413;28;20171;-68
2022/02/07 09:58:28;;;;;;;4.22;1.70;;;18.30;53.10;;;;;;5055723;28;20219;-68
2022/02/07 10:00:59;;;;;;;3.58;1.50;;;18.30;53.20;;;;;;5055465;28;20672;-68
2022/02/07 10:03:31;;;;;;;3.47;1.35;;;18.30;53.20;;;;;;5054994;28;20195;-68
2022/02/07 10:06:03;;;;;;;4.88;2.00;;;18.30;53.30;;;;;;5055289;28;20512;-68
2022/02/07 10:11:07;;;;;;;4.80;1.92;;;18.10;53.40;;;;;;5054783;28;20183;-68
2022/02/07 10:16:30;;;;;;;4.50;1.63;;;18.00;53.60;;;;;;5054635;28;20190;-67
2022/02/07 10:19:30;;;;;;;3.50;1.65;;;18.00;53.60;;;;;;5054934;28;20245;-68
2022/02/07 10:22:16;;;;;;;4.18;1.80;;;18.00;53.60;;;;;;5055037;28;20186;-68
2022/02/07 10:43:46;;;;;;;4.63;1.90;;;18.10;53.30;;;;;;5057261;28;20174;-68
2022/02/07 10:46:15;;;;;;;4.78;1.70;;;18.10;53.30;;;;;;5074106;28;20212;-68
2022/02/07 10:48:45;;;;;;;4.85;1.90;;;18.10;53.20;;;;;;5075059;28;20187;-68
2022/02/07 10:51:23;;;;;;;3.38;2.20;;;18.10;53.20;;;;;;5073795;28;20288;-67
2022/02/07 10:53:52;;;;;;;4.00;1.60;;;18.10;53.20;;;;;;5074518;28;20280;-68
2022/02/07 10:56:20;;;;;;;3.40;1.30;;;18.10;53.20;;;;;;5059116;28;20517;-68
2022/02/07 10:58:48;;;;;;;2.95;1.83;;;18.00;53.30;;;;;;5053734;28;20777;-68
2022/02/07 11:01:19;;;;;;;5.20;1.80;;;17.90;53.40;;;;;;5054477;28;20232;-68
2022/02/07 11:03:49;;;;;;;4.60;1.73;;;17.80;53.50;;;;;;5054527;28;20604;-68
2022/02/07 11:06:19;;;;;;;3.17;1.95;;;17.90;53.60;;;;;;5053409;28;20634;-68
2022/02/07 11:09:03;;;;;;;3.55;1.73;;;17.80;53.70;;;;;;5054350;28;20665;-68
2022/02/07 11:14:34;;;;;;;2.92;1.55;;;17.80;53.70;;;;;;5053870;28;20528;-73
2022/02/07 11:17:21;;;;;;;4.57;1.88;;;17.80;53.70;;;;;;5055069;28;20236;-70
2022/02/07 11:20:06;;;;;;;4.25;1.70;;;17.80;53.70;;;;;;5038875;28;20219;-68
2022/02/07 11:22:52;;;;;;;4.22;2.22;;;17.80;53.70;;;;;;5054155;28;20201;-67
2022/02/07 11:28:02;;;;;;;3.80;1.60;;;18.00;53.70;;;;;;5053385;28;20218;-67
2022/02/07 11:31:00;;;;;;;3.05;1.58;;;18.00;53.60;;;;;;5053947;28;20179;-69
2022/02/07 11:33:53;;;;;;;3.60;1.55;;;18.10;53.60;;;;;;5053391;28;20186;-70
2022/02/07 11:36:36;;;;;;;7.00;2.15;;;18.10;53.40;;;;;;5037800;28;20179;-68
2022/02/07 11:39:11;;;;;;;5.60;1.58;;;18.10;53.50;;;;;;5053439;28;20289;-68
2022/02/07 11:41:55;;;;;;;3.17;1.85;;;18.10;53.50;;;;;;5052955;28;20178;-68
2022/02/07 11:44:46;;;;;;;3.80;1.30;;;18.00;53.50;;;;;;5052648;28;20581;-68
2022/02/07 11:47:13;;;;;;;3.90;1.70;;;18.00;53.40;;;;;;5053126;28;20206;-67
2022/02/07 11:49:39;;;;;;;4.22;2.00;;;18.00;53.60;;;;;;5053854;28;20183;-67
2022/02/07 11:52:27;;;;;;;6.05;1.90;;;17.90;53.60;;;;;;5053344;28;20254;-67
2022/02/07 11:55:03;;;;;;;4.95;1.90;;;17.80;53.70;;;;;;5052674;28;20206;-66
2022/02/07 11:57:37;;;;;;;5.70;1.80;;;17.80;53.80;;;;;;5053866;28;20175;-68
2022/02/07 12:00:13;;;;;;;4.78;1.92;;;17.70;53.80;;;;;;5053585;28;20186;-67
2022/02/07 12:02:40;;;;;;;4.53;1.90;;;17.70;53.80;;;;;;5052864;28;20179;-68
2022/02/07 12:05:07;;;;;;;7.55;2.10;;;17.60;53.80;;;;;;5053286;28;20195;-68
2022/02/07 12:07:37;;;;;;;4.20;1.65;;;17.60;53.80;;;;;;5053499;28;20175;-68
2022/02/07 12:12:37;;;;;;;3.90;1.90;;;17.70;53.80;;;;;;5053345;28;20185;-69
2022/02/07 12:15:15;;;;;;;3.97;1.50;;;17.80;53.80;;;;;;5052774;28;20221;-68
2022/02/07 12:17:57;;;;;;;5.07;1.50;;;17.80;54.00;;;;;;5052496;28;20179;-68
2022/02/07 12:20:24;;;;;;;4.57;1.85;;;17.80;54.00;;;;;;5053120;28;20250;-67
2022/02/07 12:22:57;;;;;;;3.50;1.77;;;17.80;54.10;;;;;;5052245;28;20179;-68
2022/02/07 12:25:36;;;;;;;3.95;1.60;;;17.90;53.90;;;;;;5052891;28;20186;-67
2022/02/07 12:28:03;;;;;;;5.63;1.42;;;18.00;53.70;;;;;;5066902;28;20166;-68
2022/02/07 12:30:32;;;;;;;3.83;1.50;;;18.10;53.70;;;;;;5072297;28;20247;-69
2022/02/07 12:33:03;;;;;;;7.15;2.05;;;18.20;53.40;;;;;;5072727;28;20202;-70
2022/02/07 12:35:29;;;;;;;3.85;1.55;;;18.50;53.10;;;;;;5073101;28;20182;-69
2022/02/07 12:37:56;;;;;;;4.90;1.45;;;18.60;52.80;;;;;;5070433;28;20173;-69
2022/02/07 12:40:21;;;;;;;2.92;1.38;;;18.80;52.60;;;;;;5072957;28;20197;-69
2022/02/07 12:42:47;;;;;;;4.18;1.50;;;18.80;52.40;;;;;;5072664;28;20642;-69
2022/02/07 12:45:13;;;;;;;5.32;1.52;;;18.90;52.30;;;;;;5053836;28;20190;-69
2022/02/07 12:47:39;;;;;;;4.38;1.75;;;19.00;52.10;;;;;;5072827;28;20291;-69
2022/02/07 12:50:18;;;;;;;2.97;1.48;;;19.10;52.00;;;;;;5072409;28;20186;-68
2022/02/07 12:52:43;;;;;;;3.72;1.40;;;19.20;51.90;;;;;;5071900;28;20249;-68
2022/02/07 12:55:12;;;;;;;3.42;1.60;;;19.30;51.80;;;;;;5072354;28;20178;-69
2022/02/07 12:57:46;;;;;;;4.20;1.55;;;19.30;51.70;;;;;;5071702;28;20579;-69
2022/02/07 13:00:19;;;;;;;4.53;2.03;;;19.30;51.60;;;;;;5072230;28;20537;-69
2022/02/07 13:02:46;;;;;;;3.55;1.67;;;19.30;51.60;;;;;;5072450;28;20202;-69
2022/02/07 13:05:13;;;;;;;2.92;1.33;;;19.30;51.80;;;;;;5071704;28;20187;-69
2022/02/07 13:07:44;;;;;;;3.20;1.25;;;19.20;51.70;;;;;;5072553;28;20174;-68
2022/02/07 13:10:12;;;;;;;2.33;1.17;;;19.20;51.90;;;;;;5072404;28;20178;-68
2022/02/07 13:12:56;;;;;;;4.22;1.42;;;19.20;51.80;;;;;;5071832;28;20186;-68
2022/02/07 13:15:25;;;;;;;3.20;1.48;;;19.10;51.80;;;;;;5072492;28;20174;-68
2022/02/07 13:17:58;;;;;;;3.80;1.35;;;19.10;51.80;;;;;;5072826;28;20178;-68
2022/02/07 13:20:23;;;;;;;4.35;1.58;;;19.00;51.80;;;;;;5071814;28;20174;-68
2022/02/07 13:23:07;;;;;;;4.07;1.50;;;19.00;52.10;;;;;;5072439;28;20232;-68
2022/02/07 13:25:53;;;;;;;3.25;1.23;;;18.90;52.20;;;;;;5072564;28;20170;-68
2022/02/07 13:28:24;;;;;;;3.20;1.23;;;18.90;52.20;;;;;;5055427;28;20682;-68
2022/02/07 13:30:51;;;;;;;3.78;1.50;;;18.90;52.30;;;;;;5052436;28;20270;-69
2022/02/07 13:33:16;;;;;;;2.95;1.20;;;18.80;52.20;;;;;;5051328;28;20183;-69
2022/02/07 13:35:45;;;;;;;2.53;1.25;;;18.80;52.20;;;;;;5052204;28;20171;-69
2022/02/07 13:38:11;;;;;;;1.73;1.15;;;18.80;52.20;;;;;;5051753;28;20617;-69
2022/02/07 13:40:47;;;;;;;4.43;1.23;;;18.80;52.30;;;;;;5051705;28;20185;-69
2022/02/07 13:43:27;;;;;;;3.78;1.50;;;18.80;52.20;;;;;;5051893;28;20182;-69
2022/02/07 13:45:53;;;;;;;2.65;1.00;;;18.80;52.20;;;;;;5052226;28;20194;-69
2022/02/07 13:48:20;;;;;;;1.80;0.95;;;18.80;52.30;;;;;;5051310;28;20262;-69
2022/02/07 13:50:48;;;;;;;3.63;1.58;;;18.70;52.40;;;;;;5051964;28;20263;-68
2022/02/07 13:53:16;;;;;;;4.55;1.48;;;18.70;52.40;;;;;;5051722;28;20231;-68
2022/02/07 13:55:42;;;;;;;4.85;1.27;;;18.80;52.40;;;;;;5033975;28;20179;-69
2022/02/07 13:58:12;;;;;;;2.25;1.20;;;18.90;52.30;;;;;;5051680;28;20268;-69
2022/02/07 14:00:49;;;;;;;2.00;1.02;;;18.90;52.10;;;;;;5052133;28;20180;-69
2022/02/07 14:03:16;;;;;;;2.70;1.10;;;18.90;52.10;;;;;;5051403;28;20221;-69
2022/02/07 14:05:43;;;;;;;2.42;1.42;;;18.80;52.00;;;;;;5051908;28;20529;-69
2022/02/07 14:08:10;;;;;;;2.53;1.42;;;18.80;52.20;;;;;;5052599;28;20183;-68
2022/02/07 14:10:38;;;;;;;1.42;1.25;;;18.70;52.80;;;;;;5055414;28;20638;-68
2022/02/07 14:13:22;;;;;;;2.85;1.30;;;18.70;52.30;;;;;;5055250;28;20187;-68
2022/02/07 14:15:48;;;;;;;3.25;1.83;;;18.60;52.40;;;;;;5054978;28;20171;-68
2022/02/07 14:18:16;;;;;;;2.78;1.15;;;18.70;52.50;;;;;;5055092;28;20203;-68
2022/02/07 14:20:41;;;;;;;2.75;1.15;;;18.70;52.40;;;;;;5055418;28;20175;-67
2022/02/07 14:23:09;;;;;;;2.38;1.02;;;18.80;52.40;;;;;;5054375;28;20179;-67
2022/02/07 14:25:34;;;;;;;2.33;1.20;;;18.80;52.30;;;;;;5055259;28;20179;-67
2022/02/07 14:28:01;;;;;;;1.33;0.95;;;18.90;52.10;;;;;;5068840;28;20176;-68
2022/02/07 14:30:29;;;;;;;2.92;1.02;;;18.90;52.00;;;;;;5074358;28;20186;-69
2022/02/07 14:32:55;;;;;;;2.88;1.00;;;18.80;52.00;;;;;;5057650;28;20523;-69
2022/02/07 14:35:20;;;;;;;2.42;1.23;;;18.80;52.00;;;;;;5075300;28;20174;-70
2022/02/07 14:37:46;;;;;;;4.28;1.33;;;18.80;52.20;;;;;;5074293;28;20182;-69
2022/02/07 14:40:12;;;;;;;3.50;1.30;;;18.70;52.90;;;;;;5074803;28;20239;-69
2022/02/07 14:42:37;;;;;;;3.42;1.20;;;18.60;52.30;;;;;;5075144;28;20682;-69
2022/02/07 14:45:14;;;;;;;2.15;1.00;;;18.60;52.40;;;;;;5073779;28;20175;-69
2022/02/07 14:50:13;;;;;;;2.22;1.08;;;18.70;52.30;;;;;;5074028;28;20224;-69
2022/02/07 14:52:39;;;;;;;2.20;0.93;;;18.70;52.20;;;;;;5074865;28;20299;-69